Clarkridge, AR (72623)

4:15 AM CST on February 14, 2016 (GMT -0600)
Cranfield Marina | | Change Station
CLOSE
Current Station
Personal Weather Station
Location: Mountain Home, AR
Elevation: 551 ft
Nearby Weather Stations
Active Advisory: Winter Weather Advisory

Elev 551 ft 36.40 °N, 92.32 °W | Updated 5 seconds ago

Overcast
Overcast
28.8 °F
Feels Like 22 °F
N
6.3
Wind Variable Wind from ESE

Today
High -- | Low -- °F
--% Chance of Precip.
Yesterday
High -- | Low -- °F
Precip. -- in
Pressure 30.18 in
Visibility 10.0 miles
Clouds Overcast 4100 ft
Windchill 22 °F
Dew Point 16 °F
Humidity 58%
Rainfall 0.00 in
Snow Depth Not available.
6:58 AM 5:48 PM
Waxing Crescent, 40% visible
METAR KBPK 140953Z AUTO 11009KT 10SM OVC041 M03/M13 A3016 RMK AO2 SLP219 T10331128
Pressure 30.18 in
Visibility 10.0 miles
Clouds Overcast 4100 ft
Windchill 22 °F
Dew Point 16 °F
Humidity 58%
Rainfall 0.00 in
Snow Depth Not available.
6:58 AM 5:48 PM
Waxing Crescent, 40% visible
METAR KBPK 140953Z AUTO 11009KT 10SM OVC041 M03/M13 A3016 RMK AO2 SLP219 T10331128

10-Day Weather Forecast

Almanac

Astronomy

Feb. 14, 2016 Rise Set
Actual Time
Civil Twilight
Nautical Twilight
Astronomical Twilight
Moon
Length of Visible Light
Length of Day
Tomorrow will be .
, % of the Moon is Illuminated

Today's Extremes

State Highs State Lows

Community

WunderPhotos

Upload Photos

1,892,765 photos uploaded!

WunderBlog® & News

Nearby

Air Quality

  Air Quality AQ Index Pollutant
Not available.

Snow Depth

Station Depth Elevation

Earthquake Activity

City Distance Mag. Time & Date
Minimum magnitude displayed is 2.5.

Coastal Water Temperatures

Place Temperature

Stations

Nearby Weather Stations

Station Location Temp. Windchill Dew Point Humidity Wind Precip. Elev Updated Type
                   

Watches & Warnings

Winter Weather Advisory
Issued: 3:48 AM CST Feb. 14, 2016 – National Weather Service

... Winter Weather Advisory remains in effect until noon CST
today...

* timing... areas of light freezing rain and sleet are expected to
increase om coverage through sunrise... .then continuing until
late morning.

* Areas affected... the advisory includes the northern two rows
of counties in Arkansas... or from Jasper... Mountain view... and
Cave City northward.

* Main impact... light freezing rain will create hazardous
driving conditions on roadways... especially bridges and
overpasses exposed to the cold air.

Precautionary/preparedness actions...

A Winter Weather Advisory is issued when light wintry
precipitation is expected to cause travel difficulties. Be
prepared for icy roads... and use caution while driving.



55